Time;durP1;ratioP1;P1;durP2;ratioP2;P2;SDS_P1;SDS_P2;PMS_P1;PMS_P2;Temp;Humidity;BMP_temperature;BMP_pressure;BME280_temperature;BME280_humidity;BME280_pressure;Samples;Min_cycle;Max_cycle;Signal;HPM_P1;HPM_P2
2021/03/03 00:00:36;;;;;;;;;;;;;;;9.98;45.08;102409.91;5028937;28;19917;-82
2021/03/03 00:03:21;;;;;;;;;;;;;;;10.12;44.54;102412.91;5023858;28;19913;-82
2021/03/03 00:06:06;;;;;;;;;;;;;;;10.14;44.16;102416.19;5025632;28;19917;-82
2021/03/03 00:08:50;;;;;;;;;;;;;;;10.14;44.86;102417.00;5029844;28;19913;-82
2021/03/03 00:11:34;;;;;;;;;;;;;;;10.10;44.51;102415.09;5037844;28;19921;-82
2021/03/03 00:14:19;;;;;;;;;;;;;;;10.18;44.51;102411.88;5039204;28;19913;-82
2021/03/03 00:17:04;;;;;;;;;;;;;;;10.14;44.71;102410.75;5053099;28;19913;-82
2021/03/03 00:19:48;;;;;;;;;;;;;;;10.15;45.11;102409.69;5038091;28;19917;-82
2021/03/03 00:22:33;;;;;;;;;;;;;;;10.10;44.72;102417.81;5021985;28;19913;-82
2021/03/03 00:25:17;;;;;;;;;;;;;;;10.21;44.63;102414.84;5023675;28;19913;-82
2021/03/03 00:28:01;;;;;;;;;;;;;;;10.23;44.88;102420.84;5027043;28;19913;-81
2021/03/03 00:30:46;;;;;;;;;;;;;;;9.76;44.79;102415.56;5021151;28;20119;-82
2021/03/03 00:33:30;;;;;;;;;;;;;;;10.04;45.38;102416.19;5022175;28;19913;-82
2021/03/03 00:36:14;;;;;;;;;;;;;;;10.11;44.59;102417.53;5028955;28;19913;-82
2021/03/03 00:38:59;;;;;;;;;;;;;;;10.13;44.36;102415.38;5039846;28;19940;-81
2021/03/03 00:41:44;;;;;;;;;;;;;;;10.09;44.55;102414.28;5021052;28;20296;-81
2021/03/03 00:44:29;;;;;;;;;;;;;;;10.20;44.78;102409.72;5012977;28;19913;-82
2021/03/03 00:47:13;;;;;;;;;;;;;;;10.24;43.88;102408.91;5022417;28;20463;-82
2021/03/03 00:49:59;;;;;;;;;;;;;;;9.97;45.08;102411.00;5038433;28;21210;-82
2021/03/03 00:52:44;;;;;;;;;;;;;;;9.98;44.85;102412.63;5039290;28;19913;-82
2021/03/03 00:55:29;;;;;;;;;;;;;;;10.04;44.44;102410.75;5023737;28;19913;-82
2021/03/03 00:58:16;;;;;;;;;;;;;;;10.09;44.39;102408.03;5014389;28;19916;-82
2021/03/03 01:01:11;;;;;;;;;;;;;;;10.18;44.04;102412.69;5011281;28;19913;-82
2021/03/03 01:03:58;;;;;;;;;;;;;;;9.56;45.45;102414.69;5010679;28;20399;-82
2021/03/03 01:06:49;;;;;;;;;;;;;;;8.04;49.33;102417.22;5020822;28;19920;-82
2021/03/03 01:09:36;;;;;;;;;;;;;;;9.33;47.75;102410.53;5036790;28;19913;-82
2021/03/03 01:12:21;;;;;;;;;;;;;;;9.73;46.95;102407.16;5023970;28;20299;-83
2021/03/03 01:15:06;;;;;;;;;;;;;;;9.72;45.56;102406.31;5023861;28;19921;-80
2021/03/03 01:17:54;;;;;;;;;;;;;;;9.73;46.19;102405.25;5040798;28;19913;-82
2021/03/03 01:20:41;;;;;;;;;;;;;;;9.75;45.64;102408.50;5020288;28;19917;-81
2021/03/03 01:23:26;;;;;;;;;;;;;;;9.80;45.61;102402.28;5022535;28;19917;-82
2021/03/03 01:26:11;;;;;;;;;;;;;;;9.84;45.04;102403.38;5035140;28;20303;-82
2021/03/03 01:28:55;;;;;;;;;;;;;;;9.73;45.32;102399.00;5012292;28;19913;-82
2021/03/03 01:31:41;;;;;;;;;;;;;;;9.74;45.70;102400.63;5021185;28;20291;-82
2021/03/03 01:34:25;;;;;;;;;;;;;;;9.64;45.54;102400.63;5026842;28;19921;-82
2021/03/03 01:37:09;;;;;;;;;;;;;;;9.74;44.80;102400.63;5021431;28;19912;-82
2021/03/03 01:39:55;;;;;;;;;;;;;;;9.25;46.06;102392.84;5019413;28;19917;-82
2021/03/03 01:42:40;;;;;;;;;;;;;;;9.37;45.53;102390.75;5009738;28;19913;-82
2021/03/03 01:45:24;;;;;;;;;;;;;;;9.45;45.63;102398.38;5021303;28;19913;-80
2021/03/03 01:48:09;;;;;;;;;;;;;;;9.54;46.32;102393.25;5021468;28;19913;-81
2021/03/03 01:50:54;;;;;;;;;;;;;;;9.06;46.25;102393.59;5026654;28;19913;-82
2021/03/03 01:53:39;;;;;;;;;;;;;;;9.06;46.40;102380.84;5055268;23;19920;-76
2021/03/03 01:56:23;;;;;;;;;;;;;;;9.01;46.52;102378.09;5044955;28;19916;-76
2021/03/03 01:59:09;;;;;;;;;;;;;;;8.92;46.50;102379.69;5060721;28;19916;-76
2021/03/03 02:01:53;;;;;;;;;;;;;;;9.12;46.95;102382.50;5052850;28;19912;-78
2021/03/03 02:04:39;;;;;;;;;;;;;;;8.47;48.57;102380.22;5056527;28;20298;-76
2021/03/03 02:07:46;;;;;;;;;;;;;;;9.01;46.98;102376.19;5037833;28;19912;-76
2021/03/03 02:10:34;;;;;;;;;;;;;;;9.07;46.63;102374.34;5010668;28;19924;-76
2021/03/03 02:13:22;;;;;;;;;;;;;;;8.85;47.36;102357.38;5059880;28;19913;-77
2021/03/03 02:16:11;;;;;;;;;;;;;;;8.97;48.05;102374.28;5058456;28;19912;-76
2021/03/03 02:18:58;;;;;;;;;;;;;;;9.28;48.49;102376.06;5047535;28;19925;-76
2021/03/03 02:21:45;;;;;;;;;;;;;;;9.35;46.65;102371.19;5033794;28;19916;-76
2021/03/03 02:24:36;;;;;;;;;;;;;;;9.24;45.99;102374.97;5063914;28;19917;-78
2021/03/03 02:27:22;;;;;;;;;;;;;;;8.88;47.75;102370.44;5048213;28;19912;-76
2021/03/03 02:30:07;;;;;;;;;;;;;;;9.11;46.68;102366.47;5034573;28;19917;-76
2021/03/03 02:32:52;;;;;;;;;;;;;;;8.37;48.76;102370.13;5058886;28;20378;-76
2021/03/03 02:35:37;;;;;;;;;;;;;;;8.65;48.31;102376.25;5049969;28;19913;-77
2021/03/03 02:38:21;;;;;;;;;;;;;;;8.83;47.10;102367.69;5033568;28;19921;-77
2021/03/03 02:41:08;;;;;;;;;;;;;;;8.88;47.45;102365.00;5058333;28;19912;-76
2021/03/03 02:43:55;;;;;;;;;;;;;;;8.97;47.31;102371.56;5058647;28;19912;-77
2021/03/03 02:46:44;;;;;;;;;;;;;;;9.03;46.62;102370.53;5051502;28;19916;-76
2021/03/03 02:49:29;;;;;;;;;;;;;;;9.01;46.74;102368.06;5059808;28;19913;-77
2021/03/03 02:52:14;;;;;;;;;;;;;;;8.85;46.85;102357.38;5041268;28;19912;-77
2021/03/03 02:54:58;;;;;;;;;;;;;;;8.99;46.75;102361.25;5061070;28;19912;-77
2021/03/03 02:57:43;;;;;;;;;;;;;;;8.94;46.86;102361.22;5047621;28;20282;-76
2021/03/03 03:00:32;;;;;;;;;;;;;;;8.85;46.73;102362.81;5031048;28;19920;-76
2021/03/03 03:03:19;;;;;;;;;;;;;;;8.75;47.11;102349.19;5030180;28;19912;-76
2021/03/03 03:06:05;;;;;;;;;;;;;;;8.78;46.97;102354.94;5062084;28;20378;-77
2021/03/03 03:08:53;;;;;;;;;;;;;;;8.93;46.92;102356.91;5046261;28;19917;-76
2021/03/03 03:11:43;;;;;;;;;;;;;;;8.74;47.46;102363.81;5032748;28;19913;-76
2021/03/03 03:14:29;;;;;;;;;;;;;;;8.49;47.84;102359.06;5058463;28;19912;-76
2021/03/03 03:17:17;;;;;;;;;;;;;;;8.42;47.75;102367.44;5061040;28;19912;-77
2021/03/03 03:20:04;;;;;;;;;;;;;;;8.63;47.53;102356.72;5047011;28;19920;-76
2021/03/03 03:22:50;;;;;;;;;;;;;;;8.37;47.97;102359.28;5043708;28;19917;-76
2021/03/03 03:25:38;;;;;;;;;;;;;;;8.50;47.74;102358.81;5044187;28;19912;-76
2021/03/03 03:28:23;;;;;;;;;;;;;;;8.78;47.52;102348.69;5050326;28;19920;-76
2021/03/03 03:31:08;;;;;;;;;;;;;;;8.90;46.99;102351.97;5066001;28;20291;-76
2021/03/03 03:33:53;;;;;;;;;;;;;;;8.86;47.52;102346.28;5065009;28;20371;-76
2021/03/03 03:36:38;;;;;;;;;;;;;;;8.92;47.11;102349.84;5065496;28;19913;-76
2021/03/03 03:39:23;;;;;;;;;;;;;;;8.90;47.49;102336.53;5065229;28;19924;-78
2021/03/03 03:42:08;;;;;;;;;;;;;;;8.77;47.82;102339.72;5065611;28;19913;-79
2021/03/03 03:44:55;;;;;;;;;;;;;;;8.81;47.52;102335.41;5045798;28;19913;-76
2021/03/03 03:47:41;;;;;;;;;;;;;;;8.48;47.94;102344.69;5053303;28;19924;-76
2021/03/03 03:50:26;;;;;;;;;;;;;;;8.22;47.82;102345.56;5052962;28;19953;-77
2021/03/03 03:53:12;;;;;;;;;;;;;;;8.28;48.38;102358.06;5050913;28;19912;-78
2021/03/03 03:55:57;;;;;;;;;;;;;;;8.08;48.15;102344.34;5062233;28;19913;-76
2021/03/03 03:58:41;;;;;;;;;;;;;;;8.13;48.60;102347.91;5054289;28;19912;-76
2021/03/03 04:01:27;;;;;;;;;;;;;;;8.40;48.26;102347.91;5066560;28;19912;-78
2021/03/03 04:04:11;;;;;;;;;;;;;;;8.44;47.70;102353.59;5060990;28;20375;-76
2021/03/03 04:06:56;;;;;;;;;;;;;;;8.29;47.60;102340.72;5062040;28;20298;-76
2021/03/03 04:09:40;;;;;;;;;;;;;;;8.07;48.15;102340.03;5063619;28;19916;-77
2021/03/03 04:12:25;;;;;;;;;;;;;;;8.39;48.82;102340.84;5063539;28;19913;-77
2021/03/03 04:15:10;;;;;;;;;;;;;;;8.42;48.62;102348.47;5065332;28;19916;-76
2021/03/03 04:17:54;;;;;;;;;;;;;;;8.28;47.98;102336.38;5047320;28;19913;-76
2021/03/03 04:20:41;;;;;;;;;;;;;;;7.98;48.42;102336.97;5063315;28;20371;-76
2021/03/03 04:23:27;;;;;;;;;;;;;;;8.02;48.50;102340.00;5062577;28;20287;-77
2021/03/03 04:26:12;;;;;;;;;;;;;;;8.09;48.71;102341.41;5048918;28;19912;-76
2021/03/03 04:28:56;;;;;;;;;;;;;;;8.14;49.00;102335.19;5056657;28;19912;-76
2021/03/03 04:31:41;;;;;;;;;;;;;;;8.06;48.78;102338.41;5051882;28;19913;-76
2021/03/03 04:34:25;;;;;;;;;;;;;;;8.02;49.60;102340.81;5049547;28;19912;-78
2021/03/03 04:37:10;;;;;;;;;;;;;;;8.03;49.22;102336.19;5065652;28;19920;-78
2021/03/03 04:39:55;;;;;;;;;;;;;;;8.11;49.18;102331.13;5065882;28;19917;-78
2021/03/03 04:42:39;;;;;;;;;;;;;;;7.64;49.89;102328.25;5068170;28;19920;-78
2021/03/03 04:45:25;;;;;;;;;;;;;;;8.18;49.98;102331.72;5052375;28;19913;-78
2021/03/03 04:48:10;;;;;;;;;;;;;;;8.06;49.05;102324.84;5053795;28;19917;-77
2021/03/03 04:50:55;;;;;;;;;;;;;;;8.09;49.00;102329.72;5036974;28;19912;-76
2021/03/03 04:53:39;;;;;;;;;;;;;;;7.93;48.85;102327.97;5060366;28;19912;-77
2021/03/03 04:56:24;;;;;;;;;;;;;;;8.13;48.52;102325.44;5037841;28;19913;-76
2021/03/03 04:59:08;;;;;;;;;;;;;;;7.90;49.30;102333.91;5047035;28;19916;-76
2021/03/03 05:01:53;;;;;;;;;;;;;;;7.94;49.68;102321.47;5039322;28;19920;-77
2021/03/03 05:04:37;;;;;;;;;;;;;;;7.89;49.25;102334.97;5066641;28;19912;-78
2021/03/03 05:07:22;;;;;;;;;;;;;;;7.94;49.62;102325.00;5050598;28;19913;-76
2021/03/03 05:10:07;;;;;;;;;;;;;;;7.87;50.82;102329.03;5038836;28;19913;-78
2021/03/03 05:12:52;;;;;;;;;;;;;;;8.13;49.20;102320.00;5064501;28;19913;-76
2021/03/03 05:15:37;;;;;;;;;;;;;;;8.15;49.67;102324.09;5041430;28;19913;-77
2021/03/03 05:18:22;;;;;;;;;;;;;;;8.40;50.10;102319.97;5059062;28;19912;-76
2021/03/03 05:21:06;;;;;;;;;;;;;;;8.24;49.59;102320.91;5060335;28;20381;-76
2021/03/03 05:23:51;;;;;;;;;;;;;;;8.03;49.14;102320.75;5031966;28;19913;-76
2021/03/03 05:26:36;;;;;;;;;;;;;;;8.47;49.71;102309.72;5049945;28;20309;-75
2021/03/03 05:29:20;;;;;;;;;;;;;;;8.00;51.38;102320.47;5046913;28;19917;-76
2021/03/03 05:32:05;;;;;;;;;;;;;;;8.03;50.02;102315.34;5054607;28;19920;-76
2021/03/03 05:34:50;;;;;;;;;;;;;;;8.10;49.51;102317.84;5068432;28;20367;-76
2021/03/03 05:37:34;;;;;;;;;;;;;;;8.04;49.16;102316.97;5053872;28;19912;-76
2021/03/03 05:40:19;;;;;;;;;;;;;;;8.11;50.58;102314.06;5042850;28;19916;-76
2021/03/03 05:43:04;;;;;;;;;;;;;;;8.31;50.49;102311.53;5046865;28;19913;-76
2021/03/03 05:45:49;;;;;;;;;;;;;;;8.24;49.70;102316.31;5045574;28;19913;-76
2021/03/03 05:48:40;;;;;;;;;;;;;;;7.21;54.36;102301.28;5060141;28;19920;-79
2021/03/03 05:51:25;;;;;;;;;;;;;;;7.47;52.44;102305.06;5039997;28;19913;-78
2021/03/03 05:54:10;;;;;;;;;;;;;;;7.50;53.38;102302.69;5065491;28;19913;-78
2021/03/03 05:56:56;;;;;;;;;;;;;;;6.76;55.86;102312.34;5090516;28;19913;-79
2021/03/03 05:59:41;;;;;;;;;;;;;;;6.85;54.04;102314.38;5063512;28;19925;-78
2021/03/03 06:02:26;;;;;;;;;;;;;;;7.38;54.27;102317.41;5059943;28;20298;-77
2021/03/03 06:05:11;;;;;;;;;;;;;;;7.24;52.75;102314.31;5069461;28;19916;-77
2021/03/03 06:07:55;;;;;;;;;;;;;;;7.36;52.07;102315.00;5060135;28;19912;-78
2021/03/03 06:10:40;;;;;;;;;;;;;;;7.61;49.79;102319.84;5084473;28;19920;-78
2021/03/03 06:13:25;;;;;;;;;;;;;;;7.76;48.94;102313.75;5072650;28;19912;-78
2021/03/03 06:16:10;;;;;;;;;;;;;;;7.53;49.54;102321.09;5068279;28;20374;-77
2021/03/03 06:18:55;;;;;;;;;;;;;;;7.80;49.88;102326.53;5077505;28;19911;-79
2021/03/03 06:21:41;;;;;;;;;;;;;;;7.79;49.59;102326.78;5078731;28;20294;-77
2021/03/03 06:24:33;;;;;;;;;;;;;;;7.90;49.37;102326.63;5066121;28;19912;-77
2021/03/03 06:27:20;;;;;;;;;;;;;;;7.99;49.09;102329.66;5064669;28;19919;-78
2021/03/03 06:30:09;;;;;;;;;;;;;;;8.18;49.62;102329.00;5083207;28;19912;-77
2021/03/03 06:32:58;;;;;;;;;;;;;;;8.21;49.01;102343.13;5068703;28;19912;-77
2021/03/03 06:35:44;;;;;;;;;;;;;;;8.33;49.23;102341.88;5084870;28;20283;-77
2021/03/03 06:38:29;;;;;;;;;;;;;;;8.02;49.69;102345.41;5084474;28;19913;-76
2021/03/03 06:41:14;;;;;;;;;;;;;;;7.79;50.17;102345.72;5083300;28;19916;-77
2021/03/03 06:44:00;;;;;;;;;;;;;;;7.58;51.50;102334.69;5070140;28;19912;-78
2021/03/03 06:47:00;;;;;;;;;;;;;;;8.02;50.07;102342.69;5074759;28;19912;-78
2021/03/03 06:49:45;;;;;;;;;;;;;;;8.23;49.86;102341.75;5056603;28;19912;-77
2021/03/03 06:52:40;;;;;;;;;;;;;;;8.30;50.19;102344.28;5087073;28;19915;-77
2021/03/03 06:55:41;;;;;;;;;;;;;;;8.39;49.75;102346.25;5070532;28;19912;-77
2021/03/03 06:58:30;;;;;;;;;;;;;;;8.50;49.67;102344.44;5072184;28;19913;-76
2021/03/03 07:01:33;;;;;;;;;;;;;;;8.25;50.48;102353.19;5074126;28;19916;-79
2021/03/03 07:04:19;;;;;;;;;;;;;;;8.45;51.28;102352.53;5068207;28;19912;-77
2021/03/03 07:07:10;;;;;;;;;;;;;;;8.55;50.56;102356.13;5056852;28;19913;-77
2021/03/03 07:09:59;;;;;;;;;;;;;;;8.75;50.21;102344.59;5074816;28;19912;-77
2021/03/03 07:12:49;;;;;;;;;;;;;;;8.86;50.59;102353.59;5072258;28;20370;-77
2021/03/03 07:15:35;;;;;;;;;;;;;;;8.98;50.67;102348.78;5080978;28;19916;-79
2021/03/03 07:18:33;;;;;;;;;;;;;;;9.08;50.71;102348.84;5056651;28;19912;-77
2021/03/03 07:21:34;;;;;;;;;;;;;;;9.14;50.84;102344.25;5071775;28;20290;-77
2021/03/03 07:24:20;;;;;;;;;;;;;;;9.22;50.85;102344.53;5082259;28;19912;-77
2021/03/03 07:27:05;;;;;;;;;;;;;;;9.19;50.05;102350.50;5063634;28;19912;-77
2021/03/03 07:29:51;;;;;;;;;;;;;;;9.27;50.42;102355.41;5088034;28;20389;-78
2021/03/03 07:32:36;;;;;;;;;;;;;;;9.41;49.62;102353.81;5068521;28;19912;-77
2021/03/03 07:35:20;;;;;;;;;;;;;;;9.41;50.42;102347.56;5056296;28;19916;-77
2021/03/03 07:38:05;;;;;;;;;;;;;;;9.44;49.89;102347.88;5067950;28;19913;-77
2021/03/03 07:40:50;;;;;;;;;;;;;;;9.50;49.94;102351.41;5070503;28;19916;-78
2021/03/03 07:43:36;;;;;;;;;;;;;;;9.51;49.85;102344.88;5084937;28;19912;-77
2021/03/03 07:46:21;;;;;;;;;;;;;;;9.65;49.75;102356.06;5054171;28;19917;-76
2021/03/03 07:49:11;;;;;;;;;;;;;;;9.72;49.43;102359.34;5074319;28;19912;-78
2021/03/03 07:51:56;;;;;;;;;;;;;;;9.70;49.74;102361.53;5085979;28;19912;-78
2021/03/03 07:54:41;;;;;;;;;;;;;;;9.81;49.56;102358.53;5089522;23;19921;-85
2021/03/03 07:57:28;;;;;;;;;;;;;;;9.88;48.82;102358.28;5054626;28;19917;-85
2021/03/03 08:00:14;;;;;;;;;;;;;;;9.92;49.01;102358.53;5055527;28;19917;-84
2021/03/03 08:03:00;;;;;;;;;;;;;;;9.96;49.25;102360.44;5072503;28;19913;-87
2021/03/03 08:05:44;;;;;;;;;;;;;;;9.88;50.08;102353.66;5037648;28;19912;-84
2021/03/03 08:08:30;;;;;;;;;;;;;;;9.95;50.15;102353.41;5060841;28;20310;-86
2021/03/03 08:11:15;;;;;;;;;;;;;;;10.18;48.50;102357.50;5059972;28;19913;-86
2021/03/03 08:14:00;;;;;;;;;;;;;;;10.35;47.91;102352.63;5063048;28;19912;-83
2021/03/03 08:16:56;;;;;;;;;;;;;;;10.34;48.68;102355.59;5050068;28;19912;-87
2021/03/03 08:19:46;;;;;;;;;;;;;;;10.36;48.46;102356.16;5054357;28;19912;-87
2021/03/03 08:22:48;;;;;;;;;;;;;;;10.50;47.58;102358.03;5065433;28;19913;-87
2021/03/03 08:25:45;;;;;;;;;;;;;;;10.66;47.22;102353.38;5069225;28;19913;-87
2021/03/03 08:28:32;;;;;;;;;;;;;;;10.69;46.22;102347.38;5052635;28;19913;-87
2021/03/03 08:31:24;;;;;;;;;;;;;;;10.82;46.41;102346.00;5071031;28;19917;-86
2021/03/03 08:34:10;;;;;;;;;;;;;;;10.88;46.63;102339.44;5053783;28;19913;-87
2021/03/03 08:36:56;;;;;;;;;;;;;;;10.90;46.32;102342.69;5068891;28;19913;-87
2021/03/03 08:39:40;;;;;;;;;;;;;;;11.03;45.41;102340.19;5057449;28;19917;-86
2021/03/03 08:42:28;;;;;;;;;;;;;;;11.03;45.43;102336.66;5055077;28;19913;-88
2021/03/03 08:45:14;;;;;;;;;;;;;;;11.11;45.18;102347.78;5054743;28;19913;-85
2021/03/03 08:47:59;;;;;;;;;;;;;;;11.22;45.37;102345.84;5053557;28;19912;-88
2021/03/03 08:50:45;;;;;;;;;;;;;;;11.26;44.35;102346.91;5040129;28;19913;-88
2021/03/03 08:53:31;;;;;;;;;;;;;;;11.30;44.54;102337.09;5053503;28;19913;-87
2021/03/03 08:56:32;;;;;;;;;;;;;;;11.32;44.14;102345.78;5058373;28;20330;-88
2021/03/03 08:59:36;;;;;;;;;;;;;;;11.41;44.93;102337.84;5055119;28;19916;-85
2021/03/03 09:02:22;;;;;;;;;;;;;;;11.50;44.31;102341.59;5055607;28;19917;-88
2021/03/03 09:05:09;;;;;;;;;;;;;;;11.57;44.42;102342.13;5052734;28;19917;-87
2021/03/03 09:07:53;;;;;;;;;;;;;;;11.69;44.10;102342.56;5050716;28;19913;-85
2021/03/03 09:10:38;;;;;;;;;;;;;;;11.77;43.79;102344.75;5057440;28;19917;-88
2021/03/03 09:13:23;;;;;;;;;;;;;;;11.90;43.86;102343.28;5038484;28;19912;-86
2021/03/03 09:16:12;;;;;;;;;;;;;;;11.96;42.21;102340.22;5051902;28;19912;-86
2021/03/03 09:19:07;;;;;;;;;;;;;;;11.99;42.46;102338.84;5065177;28;19913;-86
2021/03/03 09:21:52;;;;;;;;;;;;;;;11.98;42.58;102338.03;5055678;28;19921;-88
2021/03/03 09:24:38;;;;;;;;;;;;;;;12.05;42.54;102336.88;5050860;28;20318;-88
2021/03/03 09:27:24;;;;;;;;;;;;;;;12.15;42.84;102331.34;5056519;28;19912;-87
2021/03/03 09:30:09;;;;;;;;;;;;;;;12.17;42.66;102334.59;5071493;28;19912;-88
2021/03/03 09:32:55;;;;;;;;;;;;;;;12.21;42.55;102327.47;5051039;28;19917;-87
2021/03/03 09:35:40;;;;;;;;;;;;;;;12.26;42.37;102328.25;5052269;28;19913;-88
2021/03/03 09:38:24;;;;;;;;;;;;;;;12.39;43.12;102326.78;5051901;28;19912;-85
2021/03/03 09:41:09;;;;;;;;;;;;;;;12.52;42.27;102320.63;5040684;28;19939;-88
2021/03/03 09:44:01;;;;;;;;;;;;;;;12.58;42.97;102319.47;5037829;28;19913;-87
2021/03/03 09:46:57;;;;;;;;;;;;;;;12.60;42.46;102313.72;5042599;28;20410;-84
2021/03/03 09:49:44;;;;;;;;;;;;;;;12.66;41.50;102318.00;5053360;28;19912;-87
2021/03/03 09:52:32;;;;;;;;;;;;;;;12.78;41.17;102302.88;5053569;28;19928;-86
2021/03/03 09:55:18;;;;;;;;;;;;;;;12.86;41.47;102304.94;5050841;28;19916;-87
2021/03/03 09:58:03;;;;;;;;;;;;;;;12.88;40.87;102301.94;5034909;28;20394;-89
2021/03/03 10:00:48;;;;;;;;;;;;;;;12.88;40.84;102303.84;5037267;28;19916;-89
2021/03/03 10:03:34;;;;;;;;;;;;;;;12.95;41.59;102304.31;5050660;28;19912;-88
2021/03/03 10:06:20;;;;;;;;;;;;;;;13.01;42.29;102303.94;5057677;28;19912;-87
2021/03/03 10:09:05;;;;;;;;;;;;;;;13.04;41.40;102299.84;5037047;28;19913;-88
2021/03/03 10:11:50;;;;;;;;;;;;;;;13.06;39.58;102308.53;5063176;28;19913;-87
2021/03/03 10:14:35;;;;;;;;;;;;;;;13.08;39.44;102307.13;5034386;28;20303;-86
2021/03/03 10:17:47;;;;;;;;;;;;;;;13.12;39.49;102304.66;5052848;28;19913;-90
2021/03/03 10:20:38;;;;;;;;;;;;;;;13.16;38.46;102301.03;5038268;28;19925;-88
2021/03/03 10:23:24;;;;;;;;;;;;;;;13.23;38.46;102297.97;5050297;28;19917;-86
2021/03/03 10:26:09;;;;;;;;;;;;;;;13.22;38.58;102296.31;5056464;28;19912;-86
2021/03/03 10:28:53;;;;;;;;;;;;;;;13.30;38.32;102303.06;5052037;28;19920;-90
2021/03/03 10:31:39;;;;;;;;;;;;;;;13.32;37.76;102303.56;5049506;28;20298;-91
2021/03/03 10:34:27;;;;;;;;;;;;;;;13.42;37.85;102301.50;5042688;28;19913;-90
2021/03/03 10:37:22;;;;;;;;;;;;;;;13.47;38.34;102306.09;5053548;28;19912;-90
2021/03/03 10:40:14;;;;;;;;;;;;;;;13.54;37.67;102299.16;5042143;28;19917;-89
2021/03/03 10:43:11;;;;;;;;;;;;;;;13.60;37.58;102300.72;5030222;28;20387;-88
2021/03/03 10:46:17;;;;;;;;;;;;;;;13.66;38.01;102294.03;5064243;28;20278;-91
2021/03/03 10:49:18;;;;;;;;;;;;;;;13.75;38.46;102290.63;5050290;28;19913;-90
2021/03/03 10:52:03;;;;;;;;;;;;;;;13.77;38.21;102293.88;5052065;28;19913;-90
2021/03/03 10:54:48;;;;;;;;;;;;;;;13.86;38.04;102287.44;5050532;28;19917;-89
2021/03/03 10:57:32;;;;;;;;;;;;;;;13.94;37.46;102277.72;5035595;28;19912;-90
2021/03/03 11:00:17;;;;;;;;;;;;;;;13.97;36.64;102277.13;5048000;28;19925;-89
2021/03/03 11:03:04;;;;;;;;;;;;;;;14.03;37.51;102286.88;5036982;28;19913;-90
2021/03/03 11:05:50;;;;;;;;;;;;;;;13.94;36.63;102281.28;5036861;28;19917;-91
2021/03/03 11:08:35;;;;;;;;;;;;;;;13.90;36.69;102271.25;5036912;28;19912;-91
2021/03/03 11:11:19;;;;;;;;;;;;;;;13.92;36.83;102277.22;5045512;28;19912;-90
2021/03/03 11:14:12;;;;;;;;;;;;;;;13.87;36.65;102271.81;5037635;28;19912;-90
2021/03/03 11:16:58;;;;;;;;;;;;;;;13.99;37.22;102274.91;5038816;28;19912;-89
2021/03/03 11:19:43;;;;;;;;;;;;;;;14.11;37.87;102276.06;5040475;28;20318;-90
2021/03/03 11:22:28;;;;;;;;;;;;;;;14.13;38.41;102264.81;5034280;28;20391;-89
2021/03/03 11:25:13;;;;;;;;;;;;;;;14.13;38.64;102264.81;5070494;28;19917;-90
2021/03/03 11:27:59;;;;;;;;;;;;;;;14.19;38.77;102260.06;5028682;28;19916;-89
2021/03/03 11:30:43;;;;;;;;;;;;;;;14.25;39.24;102253.38;5034235;28;19913;-88
2021/03/03 11:33:28;;;;;;;;;;;;;;;14.27;39.49;102254.72;5032302;28;19916;-91
2021/03/03 11:36:14;;;;;;;;;;;;;;;14.30;39.48;102245.06;5044964;28;19917;-90
2021/03/03 11:38:59;;;;;;;;;;;;;;;14.33;39.74;102239.81;5046834;28;19917;-89
2021/03/03 11:41:43;;;;;;;;;;;;;;;14.38;39.40;102236.19;5033393;28;19916;-90
2021/03/03 11:44:29;;;;;;;;;;;;;;;14.40;39.53;102228.50;5039371;28;19917;-89
2021/03/03 11:47:13;;;;;;;;;;;;;;;14.49;40.17;102224.75;5033125;28;19924;-89
2021/03/03 11:49:59;;;;;;;;;;;;;;;14.55;39.90;102225.44;5056865;28;19916;-89
2021/03/03 11:52:44;;;;;;;;;;;;;;;14.54;39.70;102216.44;5051660;28;19924;-86
2021/03/03 11:55:28;;;;;;;;;;;;;;;14.64;39.89;102209.94;5033900;28;19913;-87
2021/03/03 11:58:13;;;;;;;;;;;;;;;14.65;40.10;102208.00;5040888;28;19912;-87
2021/03/03 12:00:59;;;;;;;;;;;;;;;14.78;40.22;102201.72;5056148;28;19920;-87
2021/03/03 12:03:44;;;;;;;;;;;;;;;14.87;39.19;102194.38;5047658;28;19913;-87
2021/03/03 12:06:28;;;;;;;;;;;;;;;14.94;39.17;102195.56;5035038;28;19912;-84
2021/03/03 12:09:13;;;;;;;;;;;;;;;14.93;38.62;102193.94;5060477;28;19916;-89
2021/03/03 12:11:57;;;;;;;;;;;;;;;14.97;38.85;102194.16;5046554;28;19913;-90
2021/03/03 12:14:43;;;;;;;;;;;;;;;15.06;38.57;102180.53;5048030;28;19912;-89
2021/03/03 12:17:28;;;;;;;;;;;;;;;15.13;39.31;102184.47;5041886;28;19912;-89
2021/03/03 12:20:12;;;;;;;;;;;;;;;15.14;39.79;102182.50;5054041;28;19932;-88
2021/03/03 12:22:57;;;;;;;;;;;;;;;15.12;39.42;102182.03;5045492;28;19913;-89
2021/03/03 12:25:45;;;;;;;;;;;;;;;15.12;39.53;102171.88;5038458;28;19912;-91
2021/03/03 12:28:29;;;;;;;;;;;;;;;15.15;39.17;102165.78;5051685;28;20298;-88
2021/03/03 12:31:14;;;;;;;;;;;;;;;15.14;39.18;102160.59;5043290;28;19912;-87
2021/03/03 12:33:58;;;;;;;;;;;;;;;15.13;39.35;102156.25;5041293;28;19913;-87
2021/03/03 12:36:43;;;;;;;;;;;;;;;15.12;39.06;102157.38;5041691;28;19912;-87
2021/03/03 12:39:28;;;;;;;;;;;;;;;15.14;38.65;102155.13;5029626;28;19913;-88
2021/03/03 12:42:12;;;;;;;;;;;;;;;15.09;38.50;102149.75;5047377;28;19925;-86
2021/03/03 12:44:58;;;;;;;;;;;;;;;15.10;38.85;102145.91;5036717;28;19912;-87
2021/03/03 12:47:42;;;;;;;;;;;;;;;15.85;42.12;102147.88;5043848;28;19912;-81
2021/03/03 12:50:27;;;;;;;;;;;;;;;16.30;41.20;102145.78;5055215;28;19917;-81
2021/03/03 12:53:12;;;;;;;;;;;;;;;16.88;40.10;102140.72;5044940;28;19916;-82
2021/03/03 12:55:57;;;;;;;;;;;;;;;16.85;38.68;102138.63;5043939;28;19913;-82
2021/03/03 12:58:43;;;;;;;;;;;;;;;16.97;38.73;102138.78;5054206;28;19913;-81
2021/03/03 13:01:28;;;;;;;;;;;;;;;17.08;38.07;102131.84;5043291;28;19916;-81
2021/03/03 13:04:12;;;;;;;;;;;;;;;17.32;36.32;102130.53;5040351;28;19920;-82
2021/03/03 13:06:56;;;;;;;;;;;;;;;17.18;36.54;102127.94;5055141;28;20379;-82
2021/03/03 13:09:41;;;;;;;;;;;;;;;17.32;34.69;102125.03;5054413;28;19913;-82
2021/03/03 13:12:25;;;;;;;;;;;;;;;17.36;34.17;102120.47;5028241;28;19913;-82
2021/03/03 13:15:10;;;;;;;;;;;;;;;17.48;34.85;102121.41;5055057;28;19916;-82
2021/03/03 13:17:55;;;;;;;;;;;;;;;19.32;30.26;102118.84;5042273;28;19913;-85
2021/03/03 13:20:41;;;;;;;;;;;;;;;21.54;26.11;102118.72;5043262;28;19916;-81
2021/03/03 13:23:26;;;;;;;;;;;;;;;22.26;24.49;102111.03;5039357;28;19912;-82
2021/03/03 13:26:11;;;;;;;;;;;;;;;23.26;23.70;102112.03;5055387;28;19912;-81
2021/03/03 13:28:56;;;;;;;;;;;;;;;22.25;24.66;102103.91;5059405;28;20259;-82
2021/03/03 13:31:41;;;;;;;;;;;;;;;22.40;25.74;102092.00;5039328;28;19912;-81
2021/03/03 13:34:29;;;;;;;;;;;;;;;21.42;25.63;102093.91;5054374;28;19913;-82
2021/03/03 13:37:13;;;;;;;;;;;;;;;21.20;27.05;102087.78;5043961;28;20394;-81
2021/03/03 13:39:58;;;;;;;;;;;;;;;21.01;28.12;102084.88;5042188;28;19913;-81
2021/03/03 13:42:43;;;;;;;;;;;;;;;20.21;28.04;102086.78;5043657;28;20302;-82
2021/03/03 13:45:28;;;;;;;;;;;;;;;20.21;28.94;102079.31;5042088;28;19912;-81
2021/03/03 13:48:13;;;;;;;;;;;;;;;19.67;28.61;102080.66;5053580;28;19917;-84
2021/03/03 13:50:58;;;;;;;;;;;;;;;20.00;28.82;102078.63;5031738;28;19920;-80
2021/03/03 13:53:43;;;;;;;;;;;;;;;20.03;27.55;102078.72;5069585;22;19924;-83
2021/03/03 13:56:27;;;;;;;;;;;;;;;19.42;27.55;102071.53;5073981;28;19920;-83
2021/03/03 13:59:12;;;;;;;;;;;;;;;19.08;28.07;102072.72;5053865;28;19912;-82
2021/03/03 14:01:56;;;;;;;;;;;;;;;19.11;27.38;102072.81;5058550;28;19920;-83
2021/03/03 14:04:41;;;;;;;;;;;;;;;19.06;27.65;102067.53;5066217;28;19920;-82
2021/03/03 14:07:26;;;;;;;;;;;;;;;18.73;29.22;102064.75;5060056;28;19912;-82
2021/03/03 14:10:11;;;;;;;;;;;;;;;18.81;29.44;102065.81;5053774;28;19939;-83
2021/03/03 14:12:56;;;;;;;;;;;;;;;18.82;28.55;102064.69;5073253;28;19912;-83
2021/03/03 14:15:46;;;;;;;;;;;;;;;19.07;28.62;102060.88;5073691;28;20289;-83
2021/03/03 14:18:31;;;;;;;;;;;;;;;19.18;28.56;102062.06;5064085;28;19938;-83
2021/03/03 14:21:19;;;;;;;;;;;;;;;19.35;28.54;102063.81;5063749;28;19920;-83